createdAt,value
2018-12-24T00:00:10.780Z,969.84
2018-12-24T00:01:10.617Z,969.81
2018-12-24T00:02:10.588Z,969.87
2018-12-24T00:03:31.461Z,969.70
2018-12-24T00:04:10.499Z,969.65
2018-12-24T00:05:10.311Z,969.72
2018-12-24T00:06:10.305Z,969.75
2018-12-24T00:07:10.148Z,969.75
2018-12-24T00:08:10.116Z,969.64
2018-12-24T00:09:30.977Z,969.80
2018-12-24T00:10:10.021Z,969.76
2018-12-24T00:11:09.837Z,969.70
2018-12-24T00:12:09.834Z,969.72
2018-12-24T00:13:09.685Z,969.71
2018-12-24T00:14:09.644Z,969.77
2018-12-24T00:15:30.505Z,969.63
2018-12-24T00:16:09.561Z,969.66
2018-12-24T00:17:09.370Z,969.70
2018-12-24T00:18:09.361Z,969.80
2018-12-24T00:19:09.211Z,969.69
2018-12-24T00:20:09.172Z,969.70
2018-12-24T00:21:30.034Z,969.70
2018-12-24T00:22:09.080Z,969.63
2018-12-24T00:23:08.899Z,969.62
2018-12-24T00:24:08.891Z,969.62
2018-12-24T00:25:08.842Z,969.59
2018-12-24T00:26:08.701Z,969.53
2018-12-24T00:27:29.569Z,969.49
2018-12-24T00:28:08.612Z,969.61
2018-12-24T00:29:08.429Z,969.50
2018-12-24T00:30:08.426Z,969.51
2018-12-24T00:31:08.324Z,969.58
2018-12-24T00:32:08.511Z,969.58
2018-12-24T00:33:29.097Z,969.55
2018-12-24T00:34:08.146Z,969.51
2018-12-24T00:35:07.963Z,969.48
2018-12-24T00:36:08.033Z,969.64
2018-12-24T00:37:07.805Z,969.40
2018-12-24T00:38:07.758Z,969.42
2018-12-24T00:39:28.631Z,969.39
2018-12-24T00:40:07.671Z,969.29
2018-12-24T00:41:07.491Z,969.34
2018-12-24T00:42:15.652Z,969.43
2018-12-24T00:43:07.342Z,969.35
2018-12-24T00:44:07.320Z,969.42
2018-12-24T00:45:28.162Z,969.43
2018-12-24T00:46:07.205Z,969.39
2018-12-24T00:47:07.022Z,969.47
2018-12-24T00:48:07.011Z,969.46
2018-12-24T00:49:06.864Z,969.39
2018-12-24T00:50:06.818Z,969.42
2018-12-24T00:51:27.690Z,969.52
2018-12-24T00:52:06.732Z,969.44
2018-12-24T00:53:06.562Z,969.52
2018-12-24T00:54:06.541Z,969.44
2018-12-24T00:55:06.401Z,969.45
2018-12-24T00:56:06.347Z,969.40
2018-12-24T00:57:27.224Z,969.41
2018-12-24T00:58:06.258Z,969.43
2018-12-24T00:59:06.085Z,969.44
2018-12-24T01:00:06.064Z,969.53
2018-12-24T01:01:05.935Z,969.56
2018-12-24T01:02:05.880Z,969.51
2018-12-24T01:03:26.751Z,969.51
2018-12-24T01:04:05.789Z,969.46
2018-12-24T01:05:05.618Z,969.49
2018-12-24T01:06:05.596Z,969.41
2018-12-24T01:07:05.463Z,969.45
2018-12-24T01:08:06.433Z,969.55
2018-12-24T01:09:26.288Z,969.63
2018-12-24T01:10:05.313Z,969.68
2018-12-24T01:11:05.151Z,969.68
2018-12-24T01:12:05.125Z,969.60
2018-12-24T01:13:04.991Z,969.59
2018-12-24T01:14:04.946Z,969.53
2018-12-24T01:15:25.817Z,969.52
2018-12-24T01:16:04.846Z,969.59
2018-12-24T01:17:04.679Z,969.76
2018-12-24T01:18:04.654Z,969.87
2018-12-24T01:19:04.522Z,969.87
2018-12-24T01:20:04.463Z,969.86
2018-12-24T01:21:25.351Z,969.97
2018-12-24T01:22:04.395Z,970.01
2018-12-24T01:23:04.210Z,970.33
2018-12-24T01:24:04.193Z,970.90
2018-12-24T01:25:04.053Z,971.04
2018-12-24T01:26:04.098Z,971.13
2018-12-24T01:27:24.882Z,971.38
2018-12-24T01:28:03.904Z,971.63
2018-12-24T01:29:03.741Z,971.79
2018-12-24T01:30:03.716Z,971.81
2018-12-24T01:31:03.587Z,971.49
2018-12-24T01:32:03.627Z,971.32
2018-12-24T01:33:24.409Z,971.32
2018-12-24T01:34:03.484Z,971.62
2018-12-24T01:35:03.276Z,971.74
2018-12-24T01:36:03.245Z,971.70
2018-12-24T01:37:03.115Z,971.72
2018-12-24T01:38:03.156Z,971.54
2018-12-24T01:39:23.947Z,971.65
2018-12-24T01:40:02.967Z,971.70
2018-12-24T01:41:02.810Z,971.86
2018-12-24T01:42:02.790Z,971.98
2018-12-24T01:43:02.648Z,971.79
2018-12-24T01:44:02.689Z,971.93
2018-12-24T01:45:23.469Z,972.04
2018-12-24T01:46:02.502Z,972.04
2018-12-24T01:47:02.332Z,972.05
2018-12-24T01:48:02.311Z,972.03
2018-12-24T01:49:02.179Z,971.93
2018-12-24T01:50:02.220Z,971.97
2018-12-24T01:51:23.004Z,972.00
2018-12-24T01:52:02.024Z,971.95
2018-12-24T01:53:01.857Z,971.92
2018-12-24T01:54:01.835Z,971.89
2018-12-24T01:55:01.700Z,971.88
2018-12-24T01:56:01.625Z,971.86
2018-12-24T01:57:22.520Z,971.89
2018-12-24T01:58:01.554Z,971.87
2018-12-24T01:59:01.385Z,971.97
2018-12-24T02:00:01.363Z,971.97
2018-12-24T02:01:01.227Z,972.00
2018-12-24T02:02:01.169Z,972.04
2018-12-24T02:03:22.056Z,972.09
2018-12-24T02:04:01.083Z,972.09
2018-12-24T02:05:00.918Z,972.08
2018-12-24T02:06:00.895Z,972.09
2018-12-24T02:07:00.762Z,972.12
2018-12-24T02:08:00.698Z,972.18
2018-12-24T02:09:21.582Z,972.25
2018-12-24T02:10:00.610Z,972.26
2018-12-24T02:11:00.437Z,972.26
2018-12-24T02:12:00.422Z,972.19
2018-12-24T02:13:00.290Z,972.20
2018-12-24T02:14:00.234Z,972.21
2018-12-24T02:15:21.104Z,972.21
2018-12-24T02:16:00.142Z,972.23
2018-12-24T02:16:59.967Z,972.24
2018-12-24T02:18:00.012Z,972.27
2018-12-24T02:18:59.810Z,972.25
2018-12-24T02:19:59.761Z,972.22
2018-12-24T02:21:20.626Z,972.24
2018-12-24T02:21:59.676Z,972.24
2018-12-24T02:22:59.488Z,972.32
2018-12-24T02:23:59.481Z,972.43
2018-12-24T02:24:59.334Z,972.46
2018-12-24T02:25:59.292Z,972.49
2018-12-24T02:27:20.150Z,972.48
2018-12-24T02:27:59.200Z,972.46
2018-12-24T02:28:59.014Z,972.49
2018-12-24T02:29:59.014Z,972.49
2018-12-24T02:30:58.859Z,972.54
2018-12-24T02:31:58.819Z,972.58
2018-12-24T02:33:19.675Z,972.57
2018-12-24T02:33:58.726Z,972.68
2018-12-24T02:34:58.537Z,972.76
2018-12-24T02:35:58.590Z,972.79
2018-12-24T02:36:58.383Z,972.80
2018-12-24T02:37:58.353Z,972.86
2018-12-24T02:39:19.199Z,972.86
2018-12-24T02:39:58.262Z,972.85
2018-12-24T02:40:58.060Z,972.83
2018-12-24T02:41:58.068Z,972.82
2018-12-24T02:42:57.900Z,972.76
2018-12-24T02:43:57.882Z,972.80
2018-12-24T02:45:18.720Z,972.80
2018-12-24T02:45:57.690Z,972.86
2018-12-24T02:46:57.580Z,972.83
2018-12-24T02:47:57.604Z,972.90
2018-12-24T02:48:57.423Z,972.95
2018-12-24T02:49:57.405Z,973.00
2018-12-24T02:51:18.249Z,973.01
2018-12-24T02:51:57.220Z,973.00
2018-12-24T02:52:57.111Z,973.06
2018-12-24T02:53:57.136Z,973.11
2018-12-24T02:54:56.946Z,973.11
2018-12-24T02:55:56.939Z,973.22
2018-12-24T02:57:17.766Z,973.20
2018-12-24T02:57:56.744Z,973.17
2018-12-24T02:58:56.623Z,973.18
2018-12-24T02:59:56.655Z,973.20
2018-12-24T03:00:56.471Z,973.20
2018-12-24T03:01:56.464Z,973.25
2018-12-24T03:03:17.284Z,973.26
2018-12-24T03:03:56.277Z,973.32
2018-12-24T03:04:56.145Z,973.28
2018-12-24T03:05:56.186Z,973.36
2018-12-24T03:06:55.989Z,973.39
2018-12-24T03:07:55.998Z,973.40
2018-12-24T03:09:16.815Z,973.40
2018-12-24T03:09:55.802Z,973.40
2018-12-24T03:10:55.671Z,973.41
2018-12-24T03:11:55.610Z,973.41
2018-12-24T03:13:02.499Z,973.49
2018-12-24T03:13:55.529Z,973.60
2018-12-24T03:15:16.338Z,973.65
2018-12-24T03:15:55.334Z,973.65
2018-12-24T03:16:55.188Z,973.72
2018-12-24T03:17:55.192Z,973.73
2018-12-24T03:18:55.033Z,973.76
2018-12-24T03:19:55.050Z,973.80
2018-12-24T03:21:15.856Z,973.77
2018-12-24T03:21:54.863Z,973.79
2018-12-24T03:22:54.718Z,973.88
2018-12-24T03:23:54.677Z,973.97
2018-12-24T03:24:54.559Z,973.89
2018-12-24T03:25:54.585Z,973.92
2018-12-24T03:27:15.371Z,973.93
2018-12-24T03:27:54.392Z,973.94
2018-12-24T03:28:54.235Z,973.84
2018-12-24T03:29:54.201Z,973.86
2018-12-24T03:30:54.072Z,973.89
2018-12-24T03:31:54.117Z,973.93
2018-12-24T03:33:14.900Z,973.98
2018-12-24T03:33:53.926Z,973.98
2018-12-24T03:34:53.843Z,973.98
2018-12-24T03:35:53.731Z,973.96
2018-12-24T03:36:53.590Z,973.98
2018-12-24T03:37:53.538Z,974.01
2018-12-24T03:39:14.408Z,974.06
2018-12-24T03:39:53.456Z,974.06
2018-12-24T03:40:53.271Z,974.10
2018-12-24T03:41:53.261Z,974.15
2018-12-24T03:42:53.122Z,974.16
2018-12-24T03:43:53.073Z,974.17
2018-12-24T03:45:13.938Z,974.17
2018-12-24T03:45:52.980Z,974.27
2018-12-24T03:46:52.787Z,974.28
2018-12-24T03:47:52.789Z,974.32
2018-12-24T03:48:52.628Z,974.36
2018-12-24T03:49:52.599Z,974.40
2018-12-24T03:51:13.445Z,974.37
2018-12-24T03:51:52.407Z,974.45
2018-12-24T03:52:52.306Z,974.52
2018-12-24T03:53:52.322Z,974.53
2018-12-24T03:54:52.146Z,974.66
2018-12-24T03:55:52.130Z,974.71
2018-12-24T03:57:12.964Z,974.72
2018-12-24T03:57:51.935Z,974.77
2018-12-24T03:58:51.831Z,974.81
2018-12-24T03:59:51.844Z,974.82
2018-12-24T04:00:51.660Z,974.85
2018-12-24T04:01:51.657Z,974.89
2018-12-24T04:03:12.480Z,974.89
2018-12-24T04:03:51.469Z,974.99
2018-12-24T04:04:51.337Z,974.95
2018-12-24T04:05:51.414Z,974.97
2018-12-24T04:06:51.177Z,974.98
2018-12-24T04:07:51.193Z,975.00
2018-12-24T04:09:12.000Z,974.94
2018-12-24T04:09:50.995Z,974.92
2018-12-24T04:10:50.859Z,975.02
2018-12-24T04:11:50.806Z,975.05
2018-12-24T04:12:50.709Z,975.05
2018-12-24T04:13:50.720Z,975.04
2018-12-24T04:15:11.510Z,975.10
2018-12-24T04:15:50.529Z,975.17
2018-12-24T04:16:50.372Z,975.25
2018-12-24T04:17:50.340Z,975.36
2018-12-24T04:18:50.210Z,975.42
2018-12-24T04:19:50.246Z,975.42
2018-12-24T04:21:11.025Z,975.42
2018-12-24T04:21:50.054Z,975.48
2018-12-24T04:22:49.886Z,975.60
2018-12-24T04:23:49.870Z,975.70
2018-12-24T04:24:49.730Z,975.66
2018-12-24T04:25:49.675Z,975.74
2018-12-24T04:27:10.545Z,975.74
2018-12-24T04:27:49.589Z,975.81
2018-12-24T04:28:49.403Z,975.93
2018-12-24T04:29:49.395Z,975.98
2018-12-24T04:30:49.245Z,976.05
2018-12-24T04:31:49.316Z,976.03
2018-12-24T04:33:10.065Z,976.06
2018-12-24T04:33:49.116Z,976.13
2018-12-24T04:34:48.929Z,976.15
2018-12-24T04:35:48.926Z,976.18
2018-12-24T04:36:48.762Z,976.28
2018-12-24T04:37:48.732Z,976.25
2018-12-24T04:39:09.576Z,976.30
2018-12-24T04:39:48.542Z,976.33
2018-12-24T04:40:48.436Z,976.28
2018-12-24T04:41:48.457Z,976.31
2018-12-24T04:42:48.270Z,976.39
2018-12-24T04:43:48.278Z,976.44
2018-12-24T04:45:09.088Z,976.50
2018-12-24T04:45:48.076Z,976.51
2018-12-24T04:46:47.952Z,976.61
2018-12-24T04:47:47.986Z,976.58
2018-12-24T04:48:47.785Z,976.65
2018-12-24T04:49:47.795Z,976.69
2018-12-24T04:51:08.604Z,976.71
2018-12-24T04:51:47.606Z,976.75
2018-12-24T04:52:47.462Z,976.80
2018-12-24T04:53:47.418Z,976.83
2018-12-24T04:54:47.298Z,976.88
2018-12-24T04:55:47.325Z,976.85
2018-12-24T04:57:08.119Z,976.94
2018-12-24T04:57:47.133Z,976.98
2018-12-24T04:58:46.977Z,977.07
2018-12-24T04:59:46.940Z,977.13
2018-12-24T05:00:46.807Z,977.09
2018-12-24T05:01:46.853Z,977.12
2018-12-24T05:03:07.632Z,977.20
2018-12-24T05:03:46.659Z,977.26
2018-12-24T05:04:46.488Z,977.30
2018-12-24T05:05:46.467Z,977.30
2018-12-24T05:06:46.328Z,977.37
2018-12-24T05:07:46.284Z,977.46
2018-12-24T05:09:07.149Z,977.51
2018-12-24T05:09:46.194Z,977.52
2018-12-24T05:10:46.000Z,977.63
2018-12-24T05:11:46.006Z,977.56
2018-12-24T05:12:45.838Z,977.66
2018-12-24T05:13:45.806Z,977.65
2018-12-24T05:15:06.658Z,977.75
2018-12-24T05:15:45.617Z,977.79
2018-12-24T05:16:45.513Z,977.80
2018-12-24T05:17:45.526Z,977.89
2018-12-24T05:18:45.354Z,977.96
2018-12-24T05:19:45.336Z,977.97
2018-12-24T05:21:06.169Z,978.02
2018-12-24T05:21:45.148Z,978.01
2018-12-24T05:22:45.030Z,978.04
2018-12-24T05:23:45.097Z,978.04
2018-12-24T05:24:44.867Z,978.11
2018-12-24T05:25:44.883Z,978.14
2018-12-24T05:27:05.687Z,978.20
2018-12-24T05:27:44.679Z,978.25
2018-12-24T05:28:44.541Z,978.31
2018-12-24T05:29:44.491Z,978.31
2018-12-24T05:30:44.383Z,978.40
2018-12-24T05:31:44.404Z,978.40
2018-12-24T05:33:05.194Z,978.42
2018-12-24T05:33:44.208Z,978.48
2018-12-24T05:34:44.053Z,978.46
2018-12-24T05:35:44.017Z,978.53
2018-12-24T05:36:44.579Z,978.55
2018-12-24T05:37:43.926Z,978.58
2018-12-24T05:39:04.716Z,978.61
2018-12-24T05:39:43.738Z,978.65
2018-12-24T05:40:43.564Z,978.69
2018-12-24T05:41:43.548Z,978.79
2018-12-24T05:42:43.398Z,978.76
2018-12-24T05:43:49.421Z,978.83
2018-12-24T05:45:04.215Z,978.86
2018-12-24T05:45:43.270Z,978.90
2018-12-24T05:46:43.076Z,978.95
2018-12-24T05:47:43.079Z,978.96
2018-12-24T05:48:42.916Z,978.98
2018-12-24T05:49:42.891Z,979.02
2018-12-24T05:51:03.729Z,979.01
2018-12-24T05:51:42.695Z,979.08
2018-12-24T05:52:42.590Z,979.13
2018-12-24T05:53:42.702Z,979.15
2018-12-24T05:54:42.423Z,979.16
2018-12-24T05:55:42.413Z,979.23
2018-12-24T05:57:03.246Z,979.22
2018-12-24T05:57:42.220Z,979.28
2018-12-24T05:58:42.104Z,979.30
2018-12-24T05:59:42.132Z,979.35
2018-12-24T06:00:41.935Z,979.42
2018-12-24T06:01:41.946Z,979.46
2018-12-24T06:03:02.769Z,979.51
2018-12-24T06:03:41.753Z,979.43
2018-12-24T06:04:41.611Z,979.52
2018-12-24T06:05:41.554Z,979.54
2018-12-24T06:06:41.452Z,979.59
2018-12-24T06:07:41.469Z,979.62
2018-12-24T06:09:02.265Z,979.69
2018-12-24T06:09:41.278Z,979.72
2018-12-24T06:10:41.133Z,979.76
2018-12-24T06:11:41.096Z,979.75
2018-12-24T06:12:40.959Z,979.82
2018-12-24T06:13:40.902Z,979.85
2018-12-24T06:15:01.776Z,979.96
2018-12-24T06:15:40.819Z,979.91
2018-12-24T06:16:40.645Z,979.96
2018-12-24T06:17:40.623Z,980.00
2018-12-24T06:18:40.468Z,980.05
2018-12-24T06:19:40.441Z,980.03
2018-12-24T06:21:01.292Z,980.09
2018-12-24T06:21:40.353Z,980.10
2018-12-24T06:22:40.143Z,980.16
2018-12-24T06:23:40.147Z,980.25
2018-12-24T06:24:39.984Z,980.20
2018-12-24T06:25:39.905Z,980.27
2018-12-24T06:27:00.849Z,980.26
2018-12-24T06:27:39.735Z,980.29
2018-12-24T06:28:39.772Z,980.33
2018-12-24T06:29:39.567Z,980.32
2018-12-24T06:30:39.583Z,980.37
2018-12-24T06:31:39.409Z,980.43
2018-12-24T06:33:00.388Z,980.44
2018-12-24T06:33:39.249Z,980.46
2018-12-24T06:34:39.303Z,980.54
2018-12-24T06:35:39.083Z,980.55
2018-12-24T06:36:39.111Z,980.57
2018-12-24T06:37:38.924Z,980.63
2018-12-24T06:38:59.913Z,980.66
2018-12-24T06:39:38.757Z,980.64
2018-12-24T06:40:38.831Z,980.68
2018-12-24T06:41:38.599Z,980.69
2018-12-24T06:42:38.652Z,980.73
2018-12-24T06:43:38.436Z,980.75
2018-12-24T06:44:59.441Z,980.77
2018-12-24T06:45:38.271Z,980.84
2018-12-24T06:46:38.362Z,980.85
2018-12-24T06:47:38.106Z,980.89
2018-12-24T06:48:38.168Z,980.93
2018-12-24T06:49:37.949Z,980.93
2018-12-24T06:50:58.972Z,981.02
2018-12-24T06:51:37.782Z,981.03
2018-12-24T06:52:37.792Z,981.12
2018-12-24T06:53:37.620Z,981.13
2018-12-24T06:54:37.702Z,981.14
2018-12-24T06:55:37.464Z,981.21
2018-12-24T06:56:58.504Z,981.23
2018-12-24T06:57:37.297Z,981.27
2018-12-24T06:58:37.216Z,981.27
2018-12-24T06:59:37.222Z,981.30
2018-12-24T07:00:37.054Z,981.38
2018-12-24T07:01:37.186Z,981.41
2018-12-24T07:02:57.867Z,981.46
2018-12-24T07:03:36.947Z,981.47
2018-12-24T07:04:36.733Z,981.43
2018-12-24T07:05:36.752Z,981.44
2018-12-24T07:06:36.568Z,981.48
2018-12-24T07:07:36.668Z,981.55
2018-12-24T07:08:57.386Z,981.58
2018-12-24T07:09:36.472Z,981.58
2018-12-24T07:10:36.236Z,981.58
2018-12-24T07:11:36.283Z,981.63
2018-12-24T07:12:36.072Z,981.69
2018-12-24T07:13:36.088Z,981.69
2018-12-24T07:14:56.892Z,981.72
2018-12-24T07:15:36.001Z,981.77
2018-12-24T07:16:35.749Z,981.83
2018-12-24T07:17:35.812Z,981.82
2018-12-24T07:18:35.593Z,981.84
2018-12-24T07:19:35.620Z,981.86
2018-12-24T07:20:56.401Z,981.90
2018-12-24T07:21:35.342Z,981.92
2018-12-24T07:22:35.260Z,981.91
2018-12-24T07:23:35.337Z,981.92
2018-12-24T07:24:35.098Z,981.98
2018-12-24T07:25:35.148Z,982.02
2018-12-24T07:26:55.914Z,982.10
2018-12-24T07:27:34.957Z,982.11
2018-12-24T07:28:34.774Z,982.15
2018-12-24T07:29:34.869Z,982.18
2018-12-24T07:30:34.608Z,982.20
2018-12-24T07:31:34.681Z,982.20
2018-12-24T07:32:55.428Z,982.28
2018-12-24T07:33:34.490Z,982.33
2018-12-24T07:34:34.285Z,982.34
2018-12-24T07:35:34.296Z,982.38
2018-12-24T07:36:34.119Z,982.36
2018-12-24T07:37:34.208Z,982.45
2018-12-24T07:38:54.941Z,982.47
2018-12-24T07:39:33.914Z,982.49
2018-12-24T07:40:33.796Z,982.54
2018-12-24T07:41:33.832Z,982.55
2018-12-24T07:42:33.636Z,982.58
2018-12-24T07:43:33.737Z,982.60
2018-12-24T07:44:54.451Z,982.70
2018-12-24T07:45:33.554Z,982.73
2018-12-24T07:46:33.312Z,982.72
2018-12-24T07:47:33.359Z,982.73
2018-12-24T07:48:33.145Z,982.75
2018-12-24T07:49:33.168Z,982.71
2018-12-24T07:50:53.969Z,982.75
2018-12-24T07:51:33.074Z,982.74
2018-12-24T07:52:32.890Z,982.82
2018-12-24T07:53:32.888Z,982.78
2018-12-24T07:54:32.655Z,982.82
2018-12-24T07:55:32.580Z,982.87
2018-12-24T07:56:53.591Z,982.88
2018-12-24T07:57:32.415Z,982.91
2018-12-24T07:58:32.538Z,982.97
2018-12-24T07:59:32.267Z,983.01
2018-12-24T08:00:32.325Z,983.04
2018-12-24T08:01:32.142Z,983.08
2018-12-24T08:02:53.126Z,983.06
2018-12-24T08:03:31.933Z,983.14
2018-12-24T08:04:31.955Z,983.18
2018-12-24T08:05:31.763Z,983.12
2018-12-24T08:06:31.766Z,983.19
2018-12-24T08:07:31.601Z,983.18
2018-12-24T08:08:52.502Z,983.26
2018-12-24T08:09:31.467Z,983.30
2018-12-24T08:10:31.356Z,983.29
2018-12-24T08:11:31.476Z,983.29
2018-12-24T08:12:31.194Z,983.32
2018-12-24T08:13:31.283Z,983.31
2018-12-24T08:14:52.008Z,983.37
2018-12-24T08:15:31.096Z,983.37
2018-12-24T08:16:30.867Z,983.38
2018-12-24T08:17:30.905Z,983.46
2018-12-24T08:18:30.706Z,983.47
2018-12-24T08:19:30.816Z,983.49
2018-12-24T08:20:51.529Z,983.48
2018-12-24T08:21:31.091Z,983.55
2018-12-24T08:22:30.377Z,983.56
2018-12-24T08:23:30.430Z,983.52
2018-12-24T08:24:30.215Z,983.52
2018-12-24T08:25:30.343Z,983.57
2018-12-24T08:26:53.338Z,983.60
2018-12-24T08:27:30.149Z,983.58
2018-12-24T08:28:29.890Z,983.63
2018-12-24T08:29:29.815Z,983.63
2018-12-24T08:30:29.869Z,983.62
2018-12-24T08:31:29.651Z,983.64
2018-12-24T08:32:50.666Z,983.65
2018-12-24T08:33:29.482Z,983.67
2018-12-24T08:34:29.586Z,983.67
2018-12-24T08:35:29.319Z,983.72
2018-12-24T08:36:29.396Z,983.73
2018-12-24T08:37:29.160Z,983.69
2018-12-24T08:38:50.057Z,983.69
2018-12-24T08:39:29.114Z,983.74
2018-12-24T08:40:28.910Z,983.74
2018-12-24T08:41:29.018Z,983.79
2018-12-24T08:42:28.747Z,983.81
2018-12-24T08:43:28.834Z,983.85
2018-12-24T08:44:49.570Z,983.82
2018-12-24T08:45:28.634Z,983.89
2018-12-24T08:46:28.425Z,983.88
2018-12-24T08:47:28.553Z,983.88
2018-12-24T08:48:28.261Z,983.94
2018-12-24T08:49:28.358Z,983.95
2018-12-24T08:50:49.076Z,983.97
2018-12-24T08:51:28.180Z,983.97
2018-12-24T08:52:27.945Z,984.00
2018-12-24T08:53:27.856Z,983.96
2018-12-24T08:54:27.794Z,984.01
2018-12-24T08:55:27.887Z,984.06
2018-12-24T08:56:48.595Z,984.05
2018-12-24T08:57:27.704Z,984.09
2018-12-24T08:58:27.448Z,984.10
2018-12-24T08:59:27.508Z,984.13
2018-12-24T09:00:27.293Z,984.13
2018-12-24T09:01:27.419Z,984.22
2018-12-24T09:02:48.108Z,984.22
2018-12-24T09:03:27.231Z,984.26
2018-12-24T09:04:26.962Z,984.28
2018-12-24T09:05:27.037Z,984.33
2018-12-24T09:06:26.810Z,984.33
2018-12-24T09:07:27.867Z,984.34
2018-12-24T09:08:47.624Z,984.37
2018-12-24T09:09:26.759Z,984.35
2018-12-24T09:10:26.479Z,984.38
2018-12-24T09:11:28.613Z,984.42
2018-12-24T09:12:26.316Z,984.45
2018-12-24T09:13:26.269Z,984.42
2018-12-24T09:14:50.314Z,984.41
2018-12-24T09:15:26.282Z,984.47
2018-12-24T09:16:25.993Z,984.47
2018-12-24T09:17:26.093Z,984.48
2018-12-24T09:18:25.834Z,984.51
2018-12-24T09:19:25.906Z,984.53
2018-12-24T09:20:52.560Z,984.57
2018-12-24T09:21:25.593Z,984.59
2018-12-24T09:22:25.514Z,984.61
2018-12-24T09:23:25.530Z,984.68
2018-12-24T09:24:25.349Z,984.67
2018-12-24T09:25:25.430Z,984.69
2018-12-24T09:26:46.165Z,984.69
2018-12-24T09:27:25.140Z,984.70
2018-12-24T09:28:25.026Z,984.70
2018-12-24T09:29:24.943Z,984.77
2018-12-24T09:30:24.864Z,984.75
2018-12-24T09:31:24.785Z,984.74
2018-12-24T09:32:45.759Z,984.75
2018-12-24T09:33:24.625Z,984.84
2018-12-24T09:34:24.575Z,984.80
2018-12-24T09:35:24.459Z,984.80
2018-12-24T09:36:24.486Z,984.80
2018-12-24T09:37:24.298Z,984.84
2018-12-24T09:38:45.291Z,984.84
2018-12-24T09:39:24.139Z,984.78
2018-12-24T09:40:24.101Z,984.82
2018-12-24T09:41:23.978Z,984.84
2018-12-24T09:42:24.016Z,984.85
2018-12-24T09:43:23.813Z,984.94
2018-12-24T09:44:44.817Z,984.90
2018-12-24T09:45:23.649Z,984.95
2018-12-24T09:46:23.604Z,984.96
2018-12-24T09:47:23.542Z,984.96
2018-12-24T09:48:23.442Z,984.94
2018-12-24T09:49:23.325Z,984.97
2018-12-24T09:50:44.229Z,985.01
2018-12-24T09:51:23.255Z,984.99
2018-12-24T09:52:23.124Z,985.05
2018-12-24T09:53:23.068Z,985.05
2018-12-24T09:54:22.926Z,985.07
2018-12-24T09:55:22.875Z,985.04
2018-12-24T09:56:43.742Z,985.09
2018-12-24T09:57:22.786Z,985.15
2018-12-24T09:58:22.603Z,985.15
2018-12-24T09:59:22.522Z,985.13
2018-12-24T10:00:22.497Z,985.17
2018-12-24T10:01:22.362Z,985.14
2018-12-24T10:02:43.259Z,985.18
2018-12-24T10:03:22.428Z,985.20
2018-12-24T10:04:22.118Z,985.18
2018-12-24T10:05:22.034Z,985.19
2018-12-24T10:06:22.087Z,985.23
2018-12-24T10:07:21.946Z,985.22
2018-12-24T10:08:42.775Z,985.19
2018-12-24T10:09:21.748Z,985.25
2018-12-24T10:10:21.632Z,985.24
2018-12-24T10:11:21.551Z,985.27
2018-12-24T10:12:21.476Z,985.26
2018-12-24T10:13:21.488Z,985.22
2018-12-24T10:14:42.292Z,985.30
2018-12-24T10:15:21.270Z,985.28
2018-12-24T10:16:21.153Z,985.30
2018-12-24T10:17:21.188Z,985.33
2018-12-24T10:18:21.091Z,985.28
2018-12-24T10:19:20.906Z,985.34
2018-12-24T10:20:41.843Z,985.35
2018-12-24T10:21:20.799Z,985.35
2018-12-24T10:22:20.665Z,985.34
2018-12-24T10:23:20.711Z,985.32
2018-12-24T10:24:20.510Z,985.28
2018-12-24T10:25:20.616Z,985.30
2018-12-24T10:26:41.327Z,985.29
2018-12-24T10:27:20.331Z,985.31
2018-12-24T10:28:20.253Z,985.34
2018-12-24T10:29:20.532Z,985.32
2018-12-24T10:30:20.036Z,985.34
2018-12-24T10:31:20.050Z,985.38
2018-12-24T10:32:40.842Z,985.38
2018-12-24T10:33:19.860Z,985.42
2018-12-24T10:34:19.706Z,985.41
2018-12-24T10:35:19.622Z,985.46
2018-12-24T10:36:19.673Z,985.42
2018-12-24T10:37:19.457Z,985.48
2018-12-24T10:38:40.479Z,985.48
2018-12-24T10:39:19.301Z,985.48
2018-12-24T10:40:19.291Z,985.43
2018-12-24T10:41:19.139Z,985.54
2018-12-24T10:42:19.104Z,985.48
2018-12-24T10:43:18.983Z,985.50
2018-12-24T10:44:40.005Z,985.47
2018-12-24T10:45:18.819Z,985.48
2018-12-24T10:46:18.825Z,985.49
2018-12-24T10:47:18.678Z,985.50
2018-12-24T10:48:18.636Z,985.47
2018-12-24T10:49:18.500Z,985.50
2018-12-24T10:50:41.946Z,985.52
2018-12-24T10:51:18.339Z,985.51
2018-12-24T10:52:18.266Z,985.50
2018-12-24T10:53:18.254Z,985.50
2018-12-24T10:54:18.100Z,985.55
2018-12-24T10:55:18.067Z,985.50
2018-12-24T10:56:39.956Z,985.51
2018-12-24T10:57:17.977Z,985.48
2018-12-24T10:58:17.772Z,985.51
2018-12-24T10:59:17.786Z,985.55
2018-12-24T11:00:17.740Z,985.50
2018-12-24T11:01:17.605Z,985.53
2018-12-24T11:02:38.433Z,985.57
2018-12-24T11:03:17.505Z,985.58
2018-12-24T11:04:17.297Z,985.58
2018-12-24T11:05:18.342Z,985.59
2018-12-24T11:06:17.139Z,985.54
2018-12-24T11:07:17.131Z,985.63
2018-12-24T11:08:37.957Z,985.56
2018-12-24T11:09:17.036Z,985.55
2018-12-24T11:10:16.835Z,985.60
2018-12-24T11:11:16.843Z,985.59
2018-12-24T11:12:16.655Z,985.58
2018-12-24T11:13:16.662Z,985.62
2018-12-24T11:14:37.479Z,985.61
2018-12-24T11:15:21.259Z,985.59
2018-12-24T11:16:16.416Z,985.65
2018-12-24T11:17:16.251Z,985.68
2018-12-24T11:18:16.171Z,985.66
2018-12-24T11:19:16.090Z,985.64
2018-12-24T11:20:37.100Z,985.69
2018-12-24T11:21:15.929Z,985.65
2018-12-24T11:22:15.997Z,985.68
2018-12-24T11:23:15.771Z,985.70
2018-12-24T11:24:15.810Z,985.71
2018-12-24T11:25:15.653Z,985.73
2018-12-24T11:26:36.613Z,985.76
2018-12-24T11:27:15.446Z,985.74
2018-12-24T11:28:15.428Z,985.75
2018-12-24T11:29:15.294Z,985.73
2018-12-24T11:30:16.266Z,985.75
2018-12-24T11:31:15.123Z,985.78
2018-12-24T11:32:36.137Z,985.78
2018-12-24T11:33:14.965Z,985.78
2018-12-24T11:34:14.890Z,985.81
2018-12-24T11:35:14.862Z,985.84
2018-12-24T11:36:14.725Z,985.90
2018-12-24T11:37:14.769Z,985.94
2018-12-24T11:38:35.539Z,985.97
2018-12-24T11:39:14.483Z,985.99
2018-12-24T11:40:14.403Z,985.94
2018-12-24T11:41:14.389Z,986.02
2018-12-24T11:42:14.239Z,986.03
2018-12-24T11:43:14.302Z,986.07
2018-12-24T11:44:35.066Z,986.06
2018-12-24T11:45:14.112Z,986.04
2018-12-24T11:46:13.960Z,986.05
2018-12-24T11:47:13.841Z,986.09
2018-12-24T11:48:13.824Z,986.12
2018-12-24T11:49:13.680Z,986.13
2018-12-24T11:50:34.578Z,986.14
2018-12-24T11:51:13.644Z,986.18
2018-12-24T11:52:13.435Z,986.18
2018-12-24T11:53:13.449Z,986.18
2018-12-24T11:54:13.280Z,986.17
2018-12-24T11:55:13.257Z,986.23
2018-12-24T11:56:34.097Z,986.24
2018-12-24T11:57:13.174Z,986.28
2018-12-24T11:58:13.234Z,986.25
2018-12-24T11:59:12.977Z,986.27
2018-12-24T12:00:12.790Z,986.30
2018-12-24T12:01:12.790Z,986.30
2018-12-24T12:02:33.610Z,986.29
2018-12-24T12:03:12.857Z,986.31
2018-12-24T12:04:12.470Z,986.31
2018-12-24T12:05:12.508Z,986.33
2018-12-24T12:06:19.757Z,986.34
2018-12-24T12:07:12.233Z,986.34
2018-12-24T12:08:33.147Z,986.34
2018-12-24T12:09:12.066Z,986.36
2018-12-24T12:10:12.153Z,986.30
2018-12-24T12:11:11.908Z,986.33
2018-12-24T12:12:11.945Z,986.36
2018-12-24T12:13:11.747Z,986.36
2018-12-24T12:14:32.744Z,986.37
2018-12-24T12:15:13.049Z,986.36
2018-12-24T12:16:11.504Z,986.42
2018-12-24T12:17:11.544Z,986.43
2018-12-24T12:18:11.341Z,986.46
2018-12-24T12:19:11.380Z,986.52
2018-12-24T12:20:32.168Z,986.49
2018-12-24T12:21:11.190Z,986.50
2018-12-24T12:22:11.028Z,986.52
2018-12-24T12:23:11.097Z,986.57
2018-12-24T12:24:10.860Z,986.51
2018-12-24T12:25:10.908Z,986.53
2018-12-24T12:26:31.688Z,986.53
2018-12-24T12:27:10.704Z,986.56